Time;durP1;ratioP1;P1;durP2;ratioP2;P2;SDS_P1;SDS_P2;PMS_P1;PMS_P2;Temp;Humidity;BMP_temperature;BMP_pressure;BME280_temperature;BME280_humidity;BME280_pressure;Samples;Min_cycle;Max_cycle;Signal;HPM_P1;HPM_P2
2022/12/19 00:01:26;;;;;;;212.60;80.57;;;;;;;-16.67;93.72;100154.64;1760379;81;22551;-77
2022/12/19 00:03:59;;;;;;;149.82;58.28;;;;;;;-16.67;94.83;100158.54;1752162;81;21010;-78
2022/12/19 00:06:25;;;;;;;197.65;68.47;;;;;;;-16.58;94.77;100169.03;1751408;81;21438;-79
2022/12/19 00:08:51;;;;;;;175.68;65.72;;;;;;;-16.63;94.66;100166.63;1752340;81;20975;-80
2022/12/19 00:11:19;;;;;;;192.80;66.80;;;;;;;-16.61;94.57;100158.32;1752309;81;21137;-79
2022/12/19 00:13:45;;;;;;;207.25;67.87;;;;;;;-16.63;94.35;100159.29;1724483;81;21013;-78
2022/12/19 00:16:17;;;;;;;223.83;71.83;;;;;;;-16.63;94.33;100157.99;1760374;81;20865;-79
2022/12/19 00:18:44;;;;;;;137.75;48.08;;;;;;;-16.64;94.32;100157.60;1761913;81;21005;-80
2022/12/19 00:21:17;;;;;;;107.52;42.38;;;;;;;-16.62;94.84;100158.38;1762803;81;21179;-77
2022/12/19 00:23:43;;;;;;;212.25;75.00;;;;;;;-16.57;95.17;100146.09;1762886;81;21616;-77
2022/12/19 00:26:17;;;;;;;131.45;50.60;;;;;;;-16.68;95.16;100147.77;1762717;81;21056;-79
2022/12/19 00:28:45;;;;;;;115.20;42.67;;;;;;;-16.58;95.46;100146.97;1762716;81;21016;-80
2022/12/19 00:31:11;;;;;;;185.30;59.88;;;;;;;-16.59;95.50;100140.09;1745267;82;21008;-79
2022/12/19 00:33:37;;;;;;;210.82;73.52;;;;;;;-16.59;96.33;100139.64;1762429;81;21064;-78
2022/12/19 00:36:06;;;;;;;181.80;62.48;;;;;;;-16.56;95.60;100137.41;1745097;81;21020;-79
2022/12/19 00:38:32;;;;;;;184.82;61.58;;;;;;;-16.58;95.08;100137.44;1762746;81;20992;-78
2022/12/19 00:41:09;;;;;;;213.33;71.97;;;;;;;-16.58;94.80;100141.78;1745048;81;21008;-79
2022/12/19 00:43:35;;;;;;;194.70;69.15;;;;;;;-16.57;94.68;100136.55;1732511;81;21572;-78
2022/12/19 00:46:07;;;;;;;210.13;75.73;;;;;;;-16.53;94.48;100129.03;1762823;81;22039;-79
2022/12/19 00:48:33;;;;;;;146.55;50.48;;;;;;;-16.48;94.28;100128.87;1743769;82;21897;-78
2022/12/19 00:51:04;;;;;;;192.80;65.57;;;;;;;-16.47;94.19;100121.48;1762869;81;20858;-79
2022/12/19 00:53:29;;;;;;;189.47;66.35;;;;;;;-16.54;94.99;100120.02;1745017;81;21450;-77
2022/12/19 00:55:55;;;;;;;175.62;64.22;;;;;;;-16.49;95.14;100112.88;1762653;81;21016;-77
2022/12/19 00:58:22;;;;;;;144.17;46.70;;;;;;;-16.48;95.00;100115.89;1744861;82;23025;-79
2022/12/19 01:00:48;;;;;;;162.47;63.28;;;;;;;-16.39;95.14;100106.91;1762003;81;21130;-80
2022/12/19 01:03:14;;;;;;;179.90;61.50;;;;;;;-16.47;95.11;100105.91;1751895;81;20891;-79
2022/12/19 01:05:40;;;;;;;157.80;53.77;;;;;;;-16.41;95.66;100108.23;1752422;81;20969;-78
2022/12/19 01:08:06;;;;;;;166.97;62.37;;;;;;;-16.41;95.06;100115.18;1752086;81;25664;-80
2022/12/19 01:10:32;;;;;;;164.73;53.43;;;;;;;-16.44;94.48;100107.52;1752501;81;23957;-78
2022/12/19 01:12:57;;;;;;;175.30;57.90;;;;;;;-16.35;94.29;100103.27;1752107;81;21798;-77
2022/12/19 01:15:23;;;;;;;154.40;56.73;;;;;;;-16.36;93.91;100108.08;1756728;81;20853;-77
2022/12/19 01:17:50;;;;;;;192.35;61.83;;;;;;;-16.43;93.54;100096.23;1744864;81;21472;-78
2022/12/19 01:20:19;;;;;;;191.50;68.02;;;;;;;-16.43;93.84;100098.37;1762779;81;21036;-78
2022/12/19 01:22:45;;;;;;;165.88;57.20;;;;;;;-16.36;94.69;100088.60;1762538;81;21023;-79
2022/12/19 01:25:11;;;;;;;175.87;61.03;;;;;;;-16.25;95.17;100085.96;1745061;81;21414;-79
2022/12/19 01:27:37;;;;;;;160.52;54.70;;;;;;;-16.11;95.87;100073.73;1762467;81;21044;-78
2022/12/19 01:30:05;;;;;;;132.47;49.80;;;;;;;-16.02;96.51;100071.21;1745082;82;20901;-79
2022/12/19 01:32:35;;;;;;;112.92;48.28;;;;;;;-15.89;96.61;100061.14;1762627;81;21307;-77
2022/12/19 01:35:01;;;;;;;116.62;44.10;;;;;;;-15.81;96.44;100051.28;1744819;82;21073;-79
2022/12/19 01:37:27;;;;;;;127.38;47.17;;;;;;;-15.77;96.64;100053.70;1762612;81;21060;-79
2022/12/19 01:39:53;;;;;;;119.90;44.83;;;;;;;-15.65;96.53;100054.91;1744923;81;20909;-78
2022/12/19 01:42:20;;;;;;;110.53;45.27;;;;;;;-15.55;96.98;100056.63;1762644;81;20901;-78
2022/12/19 01:45:10;;;;;;;90.10;32.65;;;;;;;-15.46;97.26;100052.36;1745054;81;21587;-77
2022/12/19 01:47:59;;;;;;;120.42;43.02;;;;;;;-15.32;97.29;100050.44;1762574;81;21620;-79
2022/12/19 01:50:30;;;;;;;121.65;44.67;;;;;;;-15.31;97.06;100050.82;1745032;82;23727;-77
2022/12/19 01:52:56;;;;;;;102.82;37.58;;;;;;;-15.25;96.97;100046.66;1762225;81;21029;-77
2022/12/19 01:55:22;;;;;;;128.40;43.53;;;;;;;-15.25;96.58;100040.16;1762664;81;20952;-79
2022/12/19 01:57:48;;;;;;;137.15;43.92;;;;;;;-15.29;96.37;100031.66;1745023;81;26652;-80
2022/12/19 02:00:14;;;;;;;99.83;36.03;;;;;;;-15.31;96.47;100027.42;1762756;81;25918;-78
2022/12/19 02:02:44;;;;;;;124.85;41.60;;;;;;;-15.33;96.52;100026.19;1751073;81;21624;-80
2022/12/19 02:05:09;;;;;;;104.20;34.58;;;;;;;-15.30;96.43;100022.14;1752297;81;21057;-80
2022/12/19 02:07:35;;;;;;;104.67;39.03;;;;;;;-15.29;96.40;100014.75;1752241;81;20949;-78
2022/12/19 02:10:01;;;;;;;123.80;41.80;;;;;;;-15.28;96.15;100012.54;1752185;81;27092;-78
2022/12/19 02:12:31;;;;;;;100.70;35.38;;;;;;;-15.28;96.34;100010.40;1752058;81;27020;-77
2022/12/19 02:14:57;;;;;;;87.78;37.10;;;;;;;-15.29;96.08;100018.66;1750370;81;21833;-77
2022/12/19 02:17:32;;;;;;;138.70;48.27;;;;;;;-15.30;95.59;100017.40;1762473;81;20892;-77
2022/12/19 02:20:35;;;;;;;134.72;44.85;;;;;;;-15.43;95.29;100006.26;1762848;81;21043;-77
2022/12/19 02:23:40;;;;;;;104.55;39.63;;;;;;;-15.45;95.50;100008.09;1743032;82;22034;-79
2022/12/19 02:26:38;;;;;;;125.33;45.23;;;;;;;-15.56;95.80;99997.75;1761281;81;20989;-78
2022/12/19 02:29:43;;;;;;;101.78;40.90;;;;;;;-15.51;95.95;99994.05;1745067;81;21045;-77
2022/12/19 02:32:20;;;;;;;78.72;36.55;;;;;;;-15.49;96.23;100002.63;1743955;82;21068;-78
2022/12/19 02:35:06;;;;;;;135.78;46.65;;;;;;;-15.54;96.16;99992.06;1752860;81;21008;-79
2022/12/19 02:37:40;;;;;;;123.15;46.25;;;;;;;-15.58;95.38;99985.29;1762425;81;21509;-79
2022/12/19 02:40:25;;;;;;;110.63;43.08;;;;;;;-15.70;95.16;99990.16;1762444;81;21974;-79
2022/12/19 02:42:58;;;;;;;92.88;31.87;;;;;;;-15.77;94.71;99986.59;1762997;81;21521;-78
2022/12/19 02:45:26;;;;;;;82.12;34.10;;;;;;;-15.73;94.60;99988.13;1762870;81;21020;-79
2022/12/19 02:47:52;;;;;;;131.50;48.05;;;;;;;-15.79;94.77;99975.42;1744961;82;21013;-79
2022/12/19 02:50:18;;;;;;;149.43;48.50;;;;;;;-15.88;94.52;99971.92;1762904;81;27624;-79
2022/12/19 02:52:46;;;;;;;127.87;47.10;;;;;;;-15.91;93.63;99970.74;1745115;82;25493;-78
2022/12/19 02:55:15;;;;;;;107.78;42.40;;;;;;;-15.99;93.57;99963.27;1762996;81;22009;-79
2022/12/19 02:57:59;;;;;;;113.37;37.65;;;;;;;-15.97;94.28;99971.88;1745064;82;21139;-77
2022/12/19 03:00:25;;;;;;;133.32;46.30;;;;;;;-16.03;94.58;99962.58;1762874;81;20992;-78
2022/12/19 03:03:08;;;;;;;138.03;53.73;;;;;;;-16.00;95.17;99969.38;1752975;81;26643;-80
2022/12/19 03:05:56;;;;;;;128.80;48.15;;;;;;;-16.03;94.45;99964.33;1752401;81;21014;-78
2022/12/19 03:08:28;;;;;;;;;;;;;;;-16.14;93.92;99958.76;1754751;81;21049;-80
2022/12/19 03:11:05;;;;;;;116.73;47.67;;;;;;;-16.17;93.82;99965.36;1752339;81;20162;-78
2022/12/19 03:13:41;;;;;;;118.62;43.90;;;;;;;-16.16;94.67;99965.74;1752293;81;21483;-79
2022/12/19 03:16:08;;;;;;;97.27;32.48;;;;;;;-16.12;94.82;99964.72;1760107;81;21451;-78
2022/12/19 03:18:35;;;;;;;131.55;48.23;;;;;;;-16.12;94.50;99975.11;1745002;82;21017;-77
2022/12/19 03:21:09;;;;;;;119.55;46.37;;;;;;;-16.11;95.33;99968.55;1762864;81;22023;-79
2022/12/19 03:23:35;;;;;;;116.05;39.03;;;;;;;-15.97;96.06;99978.36;1744964;82;21068;-77
2022/12/19 03:26:16;;;;;;;109.10;38.63;;;;;;;-15.85;95.85;99987.38;1762930;81;20897;-77
2022/12/19 03:28:59;;;;;;;122.55;45.55;;;;;;;-15.82;95.21;99982.03;1761675;81;21000;-77
2022/12/19 03:31:27;;;;;;;91.90;33.30;;;;;;;-15.85;94.84;99983.02;1762851;81;21060;-78
2022/12/19 03:34:01;;;;;;;105.10;35.48;;;;;;;-15.81;95.28;99979.82;1762565;81;22106;-79
2022/12/19 03:36:30;;;;;;;106.27;39.00;;;;;;;-15.80;95.35;99979.78;1761365;81;20992;-78
2022/12/19 03:38:56;;;;;;;110.28;36.38;;;;;;;-15.80;95.65;99970.69;1762458;81;21032;-78
2022/12/19 03:43:07;;;;;;;94.50;35.30;;;;;;;-15.75;96.33;99970.02;1745164;82;27645;-80
2022/12/19 03:43:50;;;;;;;85.62;26.62;;;;;;;-15.68;96.86;99973.19;1729499;81;21024;-77
2022/12/19 03:46:21;;;;;;;60.43;23.47;;;;;;;-15.55;96.72;99979.94;1745114;81;21140;-78
2022/12/19 03:48:49;;;;;;;80.50;27.77;;;;;;;-15.54;96.48;99979.91;1762565;81;21044;-78
2022/12/19 03:51:40;;;;;;;73.65;22.50;;;;;;;-15.58;96.08;99987.89;1763219;81;21008;-78
2022/12/19 03:54:17;;;;;;;102.45;37.83;;;;;;;-15.54;96.17;99985.10;1753659;81;21021;-80
2022/12/19 03:57:02;;;;;;;64.50;18.57;;;;;;;-15.56;96.33;99983.45;1745247;82;21016;-79
2022/12/19 03:59:40;;;;;;;62.70;25.95;;;;;;;-15.46;96.21;99987.36;1762550;81;21303;-77
2022/12/19 04:02:05;;;;;;;88.90;34.60;;;;;;;-15.64;95.64;99976.03;1756390;81;21417;-78
2022/12/19 04:04:35;;;;;;;89.07;31.37;;;;;;;-15.58;96.05;99982.23;1752288;81;21389;-77
2022/12/19 04:07:02;;;;;;;56.75;25.08;;;;;;;-15.55;95.54;99973.02;1724385;81;21495;-79
2022/12/19 04:09:28;;;;;;;114.15;43.55;;;;;;;-15.53;95.89;99969.89;1752046;81;21053;-79
2022/12/19 04:12:00;;;;;;;117.57;43.60;;;;;;;-15.57;96.12;99968.78;1752334;81;21905;-77
2022/12/19 04:14:29;;;;;;;79.50;33.55;;;;;;;-15.52;95.99;99962.94;1752262;81;21049;-80
2022/12/19 04:17:36;;;;;;;95.83;37.20;;;;;;;-15.48;95.82;99960.56;1762851;81;21032;-80
2022/12/19 04:20:06;;;;;;;102.90;35.30;;;;;;;-15.50;95.94;99943.74;1762809;81;21556;-78
2022/12/19 04:23:06;;;;;;;87.80;30.35;;;;;;;-15.53;95.28;99945.65;1744416;82;21068;-77
2022/12/19 04:25:38;;;;;;;101.35;34.53;;;;;;;-15.57;95.33;99946.69;1762824;81;21058;-78
2022/12/19 04:28:09;;;;;;;106.40;37.33;;;;;;;-15.48;96.13;99943.67;1744998;82;20998;-80
2022/12/19 04:30:37;;;;;;;73.75;26.87;;;;;;;-15.40;96.63;99949.37;1751490;81;21430;-78
2022/12/19 04:33:03;;;;;;;86.82;34.92;;;;;;;-15.36;96.73;99947.03;1763030;81;21087;-79
2022/12/19 04:35:29;;;;;;;89.45;35.50;;;;;;;-15.44;95.36;99949.98;1762904;81;21048;-78
2022/12/19 04:37:55;;;;;;;88.27;37.97;;;;;;;-15.54;94.20;99940.07;1745150;81;21531;-77
2022/12/19 04:40:21;;;;;;;107.57;35.93;;;;;;;-15.59;93.71;99929.86;1762880;81;21240;-79
2022/12/19 04:42:46;;;;;;;95.97;36.27;;;;;;;-15.60;93.71;99930.78;1745090;81;20976;-78
2022/12/19 04:45:12;;;;;;;109.43;40.00;;;;;;;-15.59;94.62;99925.97;1762819;81;27610;-78
2022/12/19 04:47:38;;;;;;;115.75;40.85;;;;;;;-15.56;94.84;99916.72;1763067;81;26259;-78
2022/12/19 04:50:05;;;;;;;78.43;30.43;;;;;;;-15.50;94.88;99920.80;1745282;81;21074;-80
2022/12/19 04:52:31;;;;;;;101.12;35.95;;;;;;;-15.52;94.25;99922.64;1762731;81;21001;-80
2022/12/19 04:54:57;;;;;;;97.03;37.43;;;;;;;-15.44;94.50;99923.13;1745203;82;20893;-79
2022/12/19 04:57:22;;;;;;;117.60;44.00;;;;;;;-15.60;93.98;99926.88;1762772;81;27590;-79
2022/12/19 04:59:48;;;;;;;92.70;33.67;;;;;;;-15.61;93.77;99930.42;1744990;81;26013;-79
2022/12/19 05:02:14;;;;;;;108.47;43.83;;;;;;;-15.61;94.22;99932.19;1763963;81;21183;-78
2022/12/19 05:04:40;;;;;;;96.10;37.43;;;;;;;-15.60;94.89;99932.57;1764044;81;21248;-78
2022/12/19 05:07:06;;;;;;;80.07;33.40;;;;;;;-15.53;95.30;99927.00;1764304;81;20992;-79
2022/12/19 05:09:32;;;;;;;96.60;39.78;;;;;;;-15.46;95.37;99925.81;1764206;81;27159;-78
2022/12/19 05:11:58;;;;;;;96.65;32.88;;;;;;;-15.43;96.41;99919.16;1764417;81;21062;-78
2022/12/19 05:14:24;;;;;;;89.03;32.23;;;;;;;-15.38;96.80;99924.13;1763659;81;21486;-80
2022/12/19 05:16:50;;;;;;;95.47;32.27;;;;;;;-15.33;97.49;99914.38;1734152;82;21236;-77
2022/12/19 05:19:16;;;;;;;86.83;31.07;;;;;;;-15.22;97.43;99917.31;1733811;82;20905;-80
2022/12/19 05:21:42;;;;;;;73.63;28.33;;;;;;;-15.18;97.44;99911.06;1734114;82;27648;-78
2022/12/19 05:24:08;;;;;;;60.73;22.80;;;;;;;-15.07;98.60;99908.41;1734091;82;25904;-79
2022/12/19 05:26:34;;;;;;;89.57;32.23;;;;;;;-14.95;98.44;99912.59;1734148;82;21317;-78
2022/12/19 05:29:00;;;;;;;70.50;28.10;;;;;;;-14.91;98.62;99913.27;1756306;81;22225;-78
2022/12/19 05:31:26;;;;;;;117.67;46.37;;;;;;;-14.88;97.66;99905.30;1764304;81;20872;-79
2022/12/19 05:33:52;;;;;;;105.90;39.78;;;;;;;-14.97;95.75;99896.64;1751123;81;21003;-80
2022/12/19 05:36:19;;;;;;;81.90;30.92;;;;;;;-15.14;94.20;99902.19;1756845;81;20968;-78
2022/12/19 05:38:44;;;;;;;75.70;25.20;;;;;;;-15.12;94.67;99900.38;1759887;81;21470;-78
2022/12/19 05:41:16;;;;;;;93.63;38.13;;;;;;;-15.18;94.82;99896.76;1764543;81;22215;-78
2022/12/19 05:43:44;;;;;;;112.08;40.17;;;;;;;-15.30;95.30;99902.98;1764135;81;20983;-80
2022/12/19 05:46:09;;;;;;;110.28;43.55;;;;;;;-15.32;96.23;99908.71;1764060;81;21479;-77
2022/12/19 05:48:36;;;;;;;99.20;39.30;;;;;;;-15.33;95.88;99905.27;1764363;81;26903;-80
2022/12/19 05:51:02;;;;;;;111.45;40.70;;;;;;;-15.40;95.79;99906.47;1764451;81;21480;-78
2022/12/19 05:53:27;;;;;;;104.27;41.28;;;;;;;-15.39;96.13;99895.98;1764432;81;21003;-78
2022/12/19 05:56:09;;;;;;;104.20;40.90;;;;;;;-15.47;95.31;99891.59;1780734;80;21088;-78
2022/12/19 05:58:35;;;;;;;134.18;45.83;;;;;;;-15.57;94.70;99893.40;1761229;81;21063;-79
2022/12/19 06:01:06;;;;;;;103.17;38.55;;;;;;;-15.57;95.15;99892.09;1758966;80;21022;-79
2022/12/19 06:03:32;;;;;;;100.60;38.90;;;;;;;-15.60;96.32;99903.98;1741758;81;21474;-79
2022/12/19 06:06:04;;;;;;;127.70;51.03;;;;;;;-15.78;95.17;99898.70;1748594;81;21054;-77
2022/12/19 06:08:29;;;;;;;140.60;51.33;;;;;;;-15.92;94.32;99889.83;1744831;81;21045;-77
2022/12/19 06:10:59;;;;;;;125.00;46.73;;;;;;;-15.97;94.44;99883.55;1758476;81;27037;-77
2022/12/19 06:13:26;;;;;;;142.77;56.63;;;;;;;-16.07;95.24;99875.75;1750626;81;21019;-79
2022/12/19 06:16:08;;;;;;;152.50;57.95;;;;;;;-16.09;95.42;99890.56;1746217;81;21576;-77
2022/12/19 06:18:35;;;;;;;119.08;46.15;;;;;;;-16.06;96.14;99883.50;1728198;80;39788;-77
2022/12/19 06:21:05;;;;;;;117.03;39.80;;;;;;;-15.97;97.54;99894.78;1749248;80;21030;-77
2022/12/19 06:23:33;;;;;;;128.25;47.10;;;;;;;-15.89;96.97;99894.45;1757864;81;21555;-77
2022/12/19 06:25:59;;;;;;;148.00;48.48;;;;;;;-15.94;97.28;99887.76;1744570;81;21650;-77
2022/12/19 06:28:26;;;;;;;126.82;48.00;;;;;;;-16.06;96.18;99887.82;1739640;80;21420;-80
2022/12/19 06:30:57;;;;;;;116.05;49.73;;;;;;;-16.07;96.04;99891.33;1739951;81;20999;-80
2022/12/19 06:33:23;;;;;;;96.97;37.73;;;;;;;-16.01;96.29;99891.08;1741014;80;21071;-77
2022/12/19 06:35:59;;;;;;;104.47;33.65;;;;;;;-15.90;97.87;99894.48;1748445;80;21051;-79
2022/12/19 06:38:26;;;;;;;144.20;53.15;;;;;;;-15.83;97.28;99885.52;1743957;81;21071;-77
2022/12/19 06:43:36;;;;;;;142.95;53.78;;;;;;;-15.95;95.60;99898.61;1744343;80;20996;-79
2022/12/19 06:46:02;;;;;;;148.68;51.95;;;;;;;-15.96;95.72;99896.47;1737951;81;21066;-77
2022/12/19 06:48:28;;;;;;;84.80;34.40;;;;;;;-15.89;95.90;99905.27;1739234;81;25225;-80
2022/12/19 06:50:54;;;;;;;138.40;51.60;;;;;;;-15.82;96.32;99906.23;1737040;81;25065;-80
2022/12/19 06:53:20;;;;;;;152.63;53.23;;;;;;;-15.79;96.99;99903.52;1749244;80;21052;-79
2022/12/19 06:55:47;;;;;;;150.50;55.43;;;;;;;-15.73;97.58;99895.88;1749677;80;20876;-80
2022/12/19 06:58:13;;;;;;;116.47;45.33;;;;;;;-15.68;97.45;99903.02;1753150;80;21516;-77
2022/12/19 07:00:38;;;;;;;138.43;47.53;;;;;;;-15.60;97.29;99898.29;1741347;81;26733;-80
2022/12/19 07:03:06;;;;;;;170.60;64.10;;;;;;;-15.54;96.71;99903.22;1740630;81;27503;-77
2022/12/19 07:05:32;;;;;;;150.53;59.53;;;;;;;-15.49;97.92;99892.13;1746680;81;21056;-78
2022/12/19 07:07:58;;;;;;;147.93;55.80;;;;;;;-15.32;98.97;99903.05;1740178;81;21769;-80
2022/12/19 07:10:24;;;;;;;136.77;50.27;;;;;;;-15.33;98.09;99892.27;1748618;81;21011;-79
2022/12/19 07:12:50;;;;;;;140.23;50.40;;;;;;;-15.35;97.70;99896.70;1741768;81;27996;-77
2022/12/19 07:15:16;;;;;;;152.53;56.37;;;;;;;-15.39;97.34;99892.55;1742388;81;25948;-80
2022/12/19 07:17:42;;;;;;;167.37;60.10;;;;;;;-15.39;97.50;99897.29;1750797;81;21408;-80
2022/12/19 07:20:09;;;;;;;326.97;103.67;;;;;;;-15.43;97.42;99902.72;1757622;80;21768;-79
2022/12/19 07:22:35;;;;;;;273.32;102.60;;;;;;;-15.48;96.34;99895.58;1757277;80;21059;-78
2022/12/19 07:25:01;;;;;;;200.33;76.80;;;;;;;-15.70;94.62;99888.80;1749972;81;27633;-80
2022/12/19 07:27:27;;;;;;;177.43;72.75;;;;;;;-15.71;94.17;99887.58;1758579;81;21028;-77
2022/12/19 07:29:53;;;;;;;138.23;53.30;;;;;;;-15.79;94.06;99894.42;1740518;82;21793;-77
2022/12/19 07:32:20;;;;;;;176.40;66.72;;;;;;;-15.71;94.78;99890.18;1745546;80;21072;-79
2022/12/19 07:34:46;;;;;;;157.55;62.43;;;;;;;-15.69;96.05;99882.69;1741306;81;21055;-79
2022/12/19 07:37:12;;;;;;;157.13;62.90;;;;;;;-15.70;96.03;99884.91;1734735;81;27635;-80
2022/12/19 07:39:38;;;;;;;170.67;65.03;;;;;;;-15.68;96.03;99886.13;1748291;81;25948;-77
2022/12/19 07:42:04;;;;;;;157.57;54.53;;;;;;;-15.59;96.22;99880.94;1746966;80;22508;-77
2022/12/19 07:44:30;;;;;;;128.77;48.27;;;;;;;-15.46;96.29;99880.77;1738317;80;22084;-80
2022/12/19 07:46:56;;;;;;;193.00;87.23;;;;;;;-15.40;96.62;99881.77;1741267;81;21043;-76
2022/12/19 07:49:22;;;;;;;194.25;80.25;;;;;;;-15.34;97.56;99872.84;1740552;81;21015;-79
2022/12/19 07:51:49;;;;;;;171.47;70.83;;;;;;;-15.33;96.85;99868.03;1757323;80;26947;-77
2022/12/19 07:54:16;;;;;;;135.80;58.17;;;;;;;-15.31;96.89;99867.03;1754069;80;21047;-77
2022/12/19 07:56:43;;;;;;;171.77;70.75;;;;;;;-15.14;97.56;99857.13;1740684;81;20944;-78
2022/12/19 07:59:11;;;;;;;298.32;119.95;;;;;;;-14.97;98.85;99855.02;1740680;80;21479;-80
2022/12/19 08:01:38;;;;;;;303.48;127.12;;;;;;;-14.86;98.77;99860.56;1740786;80;20968;-80
2022/12/19 08:04:05;;;;;;;247.15;112.95;;;;;;;-14.88;96.86;99845.45;1741753;80;21051;-79
2022/12/19 08:06:32;;;;;;;232.62;97.70;;;;;;;-14.91;95.98;99866.44;1750357;80;21419;-77
2022/12/19 08:08:59;;;;;;;199.62;85.30;;;;;;;-14.88;96.04;99863.67;1758037;80;21511;-78
2022/12/19 08:11:26;;;;;;;147.28;60.03;;;;;;;-14.79;97.26;99856.71;1750137;80;20956;-78
2022/12/19 08:13:53;;;;;;;191.73;82.57;;;;;;;-14.71;98.14;99857.17;1743644;80;21027;-80
2022/12/19 08:16:20;;;;;;;211.77;84.62;;;;;;;-14.70;97.60;99848.91;1749751;81;21032;-77
2022/12/19 08:18:46;;;;;;;195.77;82.42;;;;;;;-14.61;97.32;99846.71;1771036;80;21457;-78
2022/12/19 08:21:13;;;;;;;199.47;82.57;;;;;;;-14.59;97.21;99842.72;1753855;79;21026;-78
2022/12/19 08:23:40;;;;;;;211.43;85.57;;;;;;;-14.53;97.61;99857.55;1752578;81;21550;-78
2022/12/19 08:26:11;;;;;;;176.22;68.33;;;;;;;-14.39;97.65;99841.20;1743151;81;21009;-77
2022/12/19 08:28:38;;;;;;;165.70;61.88;;;;;;;-14.25;97.83;99834.00;1743171;81;21063;-80
2022/12/19 08:31:13;;;;;;;161.80;67.17;;;;;;;-14.11;98.32;99827.59;1740207;81;21039;-80
2022/12/19 08:33:40;;;;;;;158.68;65.97;;;;;;;-14.00;98.53;99823.14;1751983;81;21408;-78
2022/12/19 08:36:10;;;;;;;186.65;70.30;;;;;;;-13.87;98.22;99826.75;1730282;81;21013;-77
2022/12/19 08:38:38;;;;;;;156.40;63.02;;;;;;;-13.77;98.34;99812.30;1739015;81;21091;-79
2022/12/19 08:41:05;;;;;;;185.18;70.37;;;;;;;-13.60;98.39;99819.20;1746290;80;21008;-79
2022/12/19 08:43:32;;;;;;;186.70;72.25;;;;;;;-13.50;98.82;99815.63;1743615;80;22180;-80
2022/12/19 08:45:59;;;;;;;196.25;76.62;;;;;;;-13.36;98.76;99817.48;1749948;80;21071;-78
2022/12/19 08:48:26;;;;;;;175.25;69.20;;;;;;;-13.27;98.89;99811.28;1748062;81;20980;-78
2022/12/19 08:51:00;;;;;;;175.53;66.47;;;;;;;-13.17;99.15;99804.58;1746694;81;21410;-80
2022/12/19 08:53:29;;;;;;;166.32;59.88;;;;;;;-13.03;99.46;99796.45;1746720;80;21066;-80
2022/12/19 08:55:57;;;;;;;201.00;67.92;;;;;;;-12.92;99.36;99801.42;1712708;81;21056;-80
2022/12/19 08:58:25;;;;;;;172.98;68.50;;;;;;;-12.79;99.27;99800.72;1756347;81;20996;-78
2022/12/19 09:00:52;;;;;;;141.93;53.67;;;;;;;-12.71;99.38;99798.52;1745529;80;20992;-77
2022/12/19 09:03:21;;;;;;;163.15;65.00;;;;;;;-12.53;99.68;99792.20;1746618;81;21058;-78
2022/12/19 09:05:59;;;;;;;;;;;;;;;-12.34;99.92;99795.85;1759474;80;21102;-79
2022/12/19 09:08:27;;;;;;;160.97;55.95;;;;;;;-12.25;100.00;99796.14;1757763;80;21132;-78
2022/12/19 09:11:00;;;;;;;133.45;59.48;;;;;;;-12.07;100.00;99787.64;1750926;80;21379;-78
2022/12/19 09:13:27;;;;;;;127.10;46.95;;;;;;;-11.93;100.00;99783.35;1746152;80;21587;-80
2022/12/19 09:16:19;;;;;;;123.10;46.92;;;;;;;-11.78;100.00;99781.91;1760387;79;21439;-80
2022/12/19 09:18:51;;;;;;;190.65;75.50;;;;;;;-11.63;100.00;99780.55;1759857;79;21057;-78
2022/12/19 09:21:20;;;;;;;172.95;69.75;;;;;;;-11.54;100.00;99771.65;1766025;79;21561;-78
2022/12/19 09:23:49;;;;;;;142.20;54.38;;;;;;;-11.42;100.00;99775.28;1765637;81;21120;-78
2022/12/19 09:26:16;;;;;;;154.20;66.65;;;;;;;-11.29;100.00;99780.08;1746543;81;21075;-77
2022/12/19 09:28:44;;;;;;;162.50;69.60;;;;;;;-11.14;100.00;99780.40;1750109;81;21027;-77
2022/12/19 09:31:15;;;;;;;146.68;64.70;;;;;;;-11.02;100.00;99770.92;1786458;79;21040;-78
2022/12/19 09:33:42;;;;;;;158.87;68.70;;;;;;;-10.92;100.00;99769.38;1745703;79;21024;-78
2022/12/19 09:36:19;;;;;;;143.55;59.75;;;;;;;-10.82;100.00;99764.36;1754536;79;21053;-78
2022/12/19 09:38:46;;;;;;;175.87;66.33;;;;;;;-10.62;100.00;99754.69;1764772;81;21063;-77
2022/12/19 09:41:33;;;;;;;157.70;62.83;;;;;;;-10.43;100.00;99754.73;1748539;80;21021;-77
2022/12/19 09:44:22;;;;;;;145.00;59.67;;;;;;;-10.29;100.00;99751.55;1748445;80;21048;-77
2022/12/19 09:46:54;;;;;;;147.98;61.13;;;;;;;-10.03;100.00;99754.95;1778786;79;22937;-80
2022/12/19 09:49:23;;;;;;;176.78;70.17;;;;;;;-9.85;100.00;99742.80;1732712;80;21143;-79
2022/12/19 09:52:22;;;;;;;149.00;58.15;;;;;;;-9.66;100.00;99739.22;1748890;81;21355;-80
2022/12/19 09:54:54;;;;;;;;;;;;;;;-9.50;100.00;99737.65;1746768;81;21011;-80
2022/12/19 09:57:56;;;;;;;138.85;57.08;;;;;;;-9.29;100.00;99739.21;1757512;81;20191;-77
2022/12/19 10:00:23;;;;;;;138.50;62.55;;;;;;;-9.11;100.00;99736.54;1746485;81;21019;-80
2022/12/19 10:03:06;;;;;;;160.35;67.32;;;;;;;-8.96;100.00;99735.41;1741635;81;21150;-78
2022/12/19 10:05:54;;;;;;;134.25;59.60;;;;;;;-8.82;100.00;99739.14;1741726;81;21450;-80
2022/12/19 10:08:30;;;;;;;130.55;59.80;;;;;;;-8.62;100.00;99738.97;1745193;81;21133;-80
2022/12/19 10:11:16;;;;;;;125.38;60.03;;;;;;;-8.36;100.00;99736.14;1738751;81;21158;-80
2022/12/19 10:14:07;;;;;;;136.80;60.50;;;;;;;-8.13;100.00;99735.63;1755209;81;22232;-78
2022/12/19 10:17:12;;;;;;;123.82;57.43;;;;;;;-8.01;100.00;99732.06;1747530;81;21041;-78
2022/12/19 10:20:16;;;;;;;137.50;56.40;;;;;;;-7.85;100.00;99715.42;1737154;81;21054;-78
2022/12/19 10:23:11;;;;;;;132.10;57.95;;;;;;;-7.68;100.00;99701.76;1749385;81;21094;-80
2022/12/19 10:26:01;;;;;;;134.37;58.45;;;;;;;-7.54;100.00;99705.89;1740938;81;21133;-78
2022/12/19 10:28:51;;;;;;;139.75;59.38;;;;;;;-7.37;100.00;99698.42;1742279;81;21169;-78
2022/12/19 10:31:42;;;;;;;111.70;44.33;;;;;;;-7.24;100.00;99690.73;1734610;81;21606;-78
2022/12/19 10:34:21;;;;;;;119.20;55.03;;;;;;;-7.11;100.00;99678.68;1753490;81;21192;-78
2022/12/19 10:37:00;;;;;;;120.20;56.55;;;;;;;-6.92;100.00;99679.30;1757090;81;21614;-78
2022/12/19 10:39:56;;;;;;;109.83;49.80;;;;;;;-6.77;100.00;99672.75;1712196;82;21093;-80
2022/12/19 10:42:49;;;;;;;112.60;49.98;;;;;;;-6.67;100.00;99668.36;1749228;81;21920;-80
2022/12/19 10:45:19;;;;;;;108.97;47.67;;;;;;;-6.57;100.00;99659.21;1751616;81;20990;-80
2022/12/19 10:47:48;;;;;;;116.75;56.23;;;;;;;-6.46;100.00;99650.37;1743163;80;21000;-78
2022/12/19 10:50:22;;;;;;;105.67;46.75;;;;;;;-6.40;100.00;99645.41;1737315;81;21458;-80
2022/12/19 10:52:52;;;;;;;110.45;52.20;;;;;;;-6.30;100.00;99645.45;1747138;81;21138;-78
2022/12/19 10:55:44;;;;;;;109.17;46.95;;;;;;;-6.20;100.00;99649.44;1740124;81;21560;-78
2022/12/19 10:58:24;;;;;;;101.00;43.15;;;;;;;-6.13;100.00;99636.90;1755812;79;21083;-78
2022/12/19 11:01:30;;;;;;;105.90;45.03;;;;;;;-6.04;100.00;99630.81;1746787;81;21039;-80
2022/12/19 11:04:32;;;;;;;96.55;41.68;;;;;;;-5.93;100.00;99631.17;1743654;79;21016;-80
2022/12/19 11:07:07;;;;;;;84.25;38.38;;;;;;;-5.82;100.00;99624.42;1746459;79;21114;-78
2022/12/19 11:09:39;;;;;;;88.55;36.70;;;;;;;-5.72;100.00;99620.02;1761972;79;21430;-80
2022/12/19 11:12:11;;;;;;;96.15;40.40;;;;;;;-5.62;100.00;99616.55;1762729;81;21124;-78
2022/12/19 11:14:42;;;;;;;84.60;38.85;;;;;;;-5.56;100.00;99611.52;1760383;81;21097;-78
2022/12/19 11:17:35;;;;;;;90.77;40.43;;;;;;;-5.46;99.98;99612.87;1743961;79;21111;-78
2022/12/19 11:20:19;;;;;;;84.47;37.17;;;;;;;-5.35;100.00;99603.97;1743461;79;20984;-78
2022/12/19 11:22:59;;;;;;;86.42;40.60;;;;;;;-5.25;100.00;99592.89;1723033;81;21122;-80
2022/12/19 11:25:36;;;;;;;90.80;41.18;;;;;;;-5.12;100.00;99589.48;1713983;81;21039;-80